Time;durP1;ratioP1;P1;durP2;ratioP2;P2;SDS_P1;SDS_P2;PMS_P1;PMS_P2;Temp;Humidity;BMP_temperature;BMP_pressure;BME280_temperature;BME280_humidity;BME280_pressure;Samples;Min_cycle;Max_cycle;Signal;HPM_P1;HPM_P2
2022/03/25 00:02:46;;;;;;;2.70;2.50;;;;;;;16.73;50.67;97506.16;10396666;28;20797;-22
2022/03/25 00:07:47;;;;;;;4.13;2.67;;;;;;;16.71;50.82;97507.81;10387591;28;20038;-22
2022/03/25 00:12:48;;;;;;;3.55;2.70;;;;;;;16.70;50.75;97496.84;10391325;28;20490;-22
2022/03/25 00:17:49;;;;;;;4.90;2.85;;;;;;;16.62;50.82;97482.38;10387943;28;20030;-21
2022/03/25 00:22:50;;;;;;;3.28;2.70;;;;;;;16.69;50.83;97495.16;10385683;28;20046;-22
2022/03/25 00:27:50;;;;;;;3.00;2.72;;;;;;;16.68;52.31;97503.56;10395848;28;20042;-21
2022/03/25 00:32:51;;;;;;;7.65;4.47;;;;;;;16.77;54.13;97503.72;10383053;28;20516;-22
2022/03/25 00:37:51;;;;;;;6.03;4.97;;;;;;;16.80;54.42;97493.66;10374560;28;20057;-22
2022/03/25 00:42:52;;;;;;;7.68;4.25;;;;;;;16.83;54.22;97491.22;10370221;28;20671;-21
2022/03/25 00:47:52;;;;;;;3.60;2.87;;;;;;;16.66;51.28;97476.53;10384475;28;20543;-22
2022/03/25 00:52:53;;;;;;;3.53;2.70;;;;;;;16.71;51.14;97488.44;10375325;28;20325;-22
2022/03/25 00:57:53;;;;;;;4.75;2.90;;;;;;;16.71;51.35;97495.19;10371269;28;20029;-22
2022/03/25 01:02:54;;;;;;;4.67;2.70;;;;;;;16.69;50.99;97485.03;10393565;28;20034;-21
2022/03/25 01:07:57;;;;;;;5.15;3.42;;;;;;;16.70;50.77;97486.72;10388230;28;20320;-22
2022/03/25 01:12:57;;;;;;;3.20;2.63;;;;;;;16.70;50.79;97484.19;10394491;28;20039;-22
2022/03/25 01:17:58;;;;;;;3.33;2.80;;;;;;;16.66;50.79;97464.75;10370116;28;20083;-22
2022/03/25 01:22:59;;;;;;;4.20;2.53;;;;;;;16.63;50.83;97458.78;10397260;28;20033;-20
2022/03/25 01:27:59;;;;;;;2.90;2.53;;;;;;;16.68;51.10;97465.63;10393386;28;20025;-22
2022/03/25 01:32:59;;;;;;;3.00;2.60;;;;;;;16.67;50.82;97471.50;10370468;28;20061;-21
2022/03/25 01:38:01;;;;;;;7.47;3.53;;;;;;;16.70;53.20;97470.72;10389751;28;20026;-21
2022/03/25 01:43:01;;;;;;;5.10;3.92;;;;;;;16.70;54.22;97461.44;10385051;28;20276;-22
2022/03/25 01:48:08;;;;;;;5.28;3.60;;;;;;;16.77;54.15;97474.25;10376965;28;20056;-21
2022/03/25 01:53:10;;;;;;;3.78;3.10;;;;;;;16.76;52.09;97469.16;10390242;28;20034;-21
2022/03/25 01:58:12;;;;;;;3.47;3.20;;;;;;;16.70;51.49;97471.56;10393577;28;20022;-21
2022/03/25 02:03:13;;;;;;;3.40;2.58;;;;;;;16.71;51.02;97467.38;10392876;28;20040;-22
2022/03/25 02:08:14;;;;;;;3.22;2.80;;;;;;;16.69;50.84;97466.50;10391843;28;20087;-21
2022/03/25 02:13:14;;;;;;;3.95;2.30;;;;;;;16.66;50.61;97464.75;10392089;28;20026;-22
2022/03/25 02:18:20;;;;;;;4.72;3.25;;;;;;;16.67;50.72;97467.28;10371617;28;20073;-21
2022/03/25 02:23:22;;;;;;;3.30;2.55;;;;;;;16.69;50.96;97463.97;10376973;28;20119;-21
2022/03/25 02:28:23;;;;;;;3.30;2.63;;;;;;;16.67;50.87;97463.94;10373096;28;20504;-22
2022/03/25 02:33:27;;;;;;;3.30;2.47;;;;;;;16.69;50.90;97467.31;10381871;28;20022;-22
2022/03/25 02:38:28;;;;;;;4.23;2.73;;;;;;;16.66;50.85;97457.16;10367173;28;20026;-21
2022/03/25 02:43:29;;;;;;;3.60;2.85;;;;;;;16.69;50.93;97461.44;10368780;28;20331;-22
2022/03/25 02:48:37;;;;;;;4.93;3.53;;;;;;;16.74;53.87;97463.22;10389559;28;20026;-22
2022/03/25 02:53:37;;;;;;;3.75;2.95;;;;;;;16.79;54.22;97466.66;10393464;28;20037;-21
2022/03/25 02:58:38;;;;;;;4.25;3.53;;;;;;;16.80;53.69;97473.44;10388838;28;20041;-21
2022/03/25 03:03:40;;;;;;;4.30;3.00;;;;;;;16.68;51.55;97468.16;10389554;28;20033;-22
2022/03/25 03:08:41;;;;;;;2.58;2.38;;;;;;;16.69;51.08;97477.44;10388468;28;20038;-21
2022/03/25 03:13:41;;;;;;;2.92;2.50;;;;;;;16.68;50.77;97478.28;10396023;28;20033;-22
2022/03/25 03:18:42;;;;;;;2.80;2.30;;;;;;;16.67;50.80;97476.56;10393875;28;20041;-21
2022/03/25 03:23:42;;;;;;;5.10;2.97;;;;;;;16.67;50.83;97477.41;10389092;28;20030;-21
2022/03/25 03:28:44;;;;;;;3.07;2.30;;;;;;;16.67;50.72;97468.13;10397164;28;20037;-22
2022/03/25 03:33:44;;;;;;;2.75;2.15;;;;;;;16.67;50.71;97463.94;10391660;28;20034;-21
2022/03/25 03:38:44;;;;;;;3.30;2.27;;;;;;;16.66;50.81;97464.75;10388801;28;20410;-22
2022/03/25 03:43:45;;;;;;;3.35;2.80;;;;;;;16.67;51.43;97462.22;10389421;28;20501;-21
2022/03/25 03:48:45;;;;;;;2.77;2.20;;;;;;;16.67;50.46;97456.34;10385387;28;20088;-21
2022/03/25 03:53:45;;;;;;;2.50;2.27;;;;;;;16.68;51.39;97465.63;10396305;28;20072;-22
2022/03/25 03:58:46;;;;;;;3.50;2.70;;;;;;;16.77;53.63;97463.28;10390759;28;20037;-21
2022/03/25 04:03:46;;;;;;;4.40;3.03;;;;;;;16.78;53.72;97467.50;10398967;28;20057;-21
2022/03/25 04:08:46;;;;;;;4.78;2.78;;;;;;;16.77;52.87;97468.31;10394839;28;20038;-22
2022/03/25 04:13:47;;;;;;;2.47;2.10;;;;;;;16.70;51.21;97460.63;10396792;28;20501;-21
2022/03/25 04:18:48;;;;;;;5.27;2.73;;;;;;;16.67;50.64;97452.13;10390274;28;20040;-22
2022/03/25 04:23:49;;;;;;;2.67;2.45;;;;;;;16.66;50.47;97459.69;10383970;28;20121;-22
2022/03/25 04:28:49;;;;;;;2.30;2.10;;;;;;;16.67;50.66;97456.34;10392740;28;20048;-21
2022/03/25 04:33:49;;;;;;;3.10;2.50;;;;;;;16.67;51.03;97463.06;10390995;28;20038;-21
2022/03/25 04:38:50;;;;;;;2.67;2.47;;;;;;;16.66;50.64;97464.75;10390280;28;20030;-21
2022/03/25 04:43:53;;;;;;;2.78;2.58;;;;;;;16.65;50.89;97463.06;10382946;28;20288;-22
2022/03/25 04:48:53;;;;;;;3.03;2.58;;;;;;;16.66;50.90;97454.66;10390906;28;20082;-22
2022/03/25 04:53:54;;;;;;;2.70;2.40;;;;;;;16.66;50.58;97464.75;10385739;28;20060;-22
2022/03/25 04:58:54;;;;;;;2.73;2.33;;;;;;;16.65;50.45;97460.53;10384562;28;20025;-22
2022/03/25 05:03:54;;;;;;;3.07;2.50;;;;;;;16.70;53.25;97466.50;10379277;28;20025;-21
2022/03/25 05:08:55;;;;;;;3.20;2.58;;;;;;;16.77;53.27;97470.84;10381662;28;20310;-21
2022/03/25 05:13:55;;;;;;;2.85;2.58;;;;;;;16.80;53.09;97473.44;10394845;28;20042;-21
2022/03/25 05:18:56;;;;;;;3.23;2.43;;;;;;;16.73;51.73;97456.47;10393360;28;20515;-21
2022/03/25 05:23:56;;;;;;;4.07;2.63;;;;;;;16.83;51.47;97468.44;10396781;28;20291;-21
2022/03/25 05:28:56;;;;;;;3.50;2.80;;;;;;;16.81;51.73;97480.22;10392302;28;20038;-22
2022/03/25 05:33:57;;;;;;;5.77;2.80;;;;;;;16.82;51.09;97471.81;10393170;28;20275;-22
2022/03/25 05:38:58;;;;;;;5.90;3.90;;;;;;;16.82;49.66;97476.88;10391480;28;20036;-22
2022/03/25 05:43:59;;;;;;;4.72;3.55;;;;;;;16.77;50.21;97468.31;10381893;28;20065;-22
2022/03/25 05:48:59;;;;;;;10.10;7.88;;;;;;;16.55;45.30;97476.31;10385530;28;20068;-21
2022/03/25 05:54:00;;;;;;;14.40;10.07;;;;;;;16.42;42.73;97474.38;10391459;28;20029;-22
2022/03/25 05:59:00;;;;;;;6.68;5.82;;;;;;;16.54;46.34;97468.72;10392424;28;20494;-21
2022/03/25 06:04:01;;;;;;;8.47;6.77;;;;;;;16.38;43.92;97476.81;10393804;28;20061;-22
2022/03/25 06:09:01;;;;;;;8.05;5.80;;;;;;;16.54;47.73;97474.63;10386335;28;20030;-21
2022/03/25 06:14:02;;;;;;;8.83;6.40;;;;;;;16.66;48.72;97474.00;10393414;28;20485;-22
2022/03/25 06:19:02;;;;;;;8.77;6.47;;;;;;;16.74;50.32;97473.34;10392340;28;20279;-22
2022/03/25 06:24:03;;;;;;;7.60;4.70;;;;;;;16.78;49.98;97473.44;10390526;28;20088;-21
2022/03/25 06:29:04;;;;;;;7.28;3.90;;;;;;;16.77;49.59;97478.44;10398153;28;20387;-22
2022/03/25 06:34:04;;;;;;;6.22;3.90;;;;;;;16.75;49.98;97478.41;10400294;28;20057;-22
2022/03/25 06:39:04;;;;;;;14.80;7.07;;;;;;;16.65;45.90;97482.41;10398119;28;20056;-21
2022/03/25 06:44:05;;;;;;;18.03;5.73;;;;;;;16.64;48.42;97489.16;10391130;28;20714;-22
2022/03/25 06:49:06;;;;;;;9.00;4.75;;;;;;;16.70;49.73;97485.91;10394714;28;20386;-22
2022/03/25 06:54:07;;;;;;;7.47;4.82;;;;;;;16.73;49.70;97486.81;10396793;28;20048;-22
2022/03/25 06:59:07;;;;;;;7.93;4.35;;;;;;;16.74;49.87;97479.22;10391812;28;20034;-22
2022/03/25 07:04:09;;;;;;;6.47;3.90;;;;;;;16.75;50.29;97482.63;10400591;28;20037;-22
2022/03/25 07:09:09;;;;;;;6.03;4.20;;;;;;;16.77;50.07;97482.66;10388338;28;20033;-22
2022/03/25 07:14:10;;;;;;;7.45;3.28;;;;;;;16.76;49.90;97489.38;10396985;28;20040;-21
2022/03/25 07:19:10;;;;;;;5.50;3.30;;;;;;;16.74;50.34;97491.03;10394240;28;20056;-21
2022/03/25 07:24:11;;;;;;;11.60;3.80;;;;;;;16.80;50.99;97488.59;10393531;28;20056;-21
2022/03/25 07:29:12;;;;;;;13.07;4.93;;;;;;;16.84;51.69;97496.28;10398352;28;20040;-21
2022/03/25 07:34:12;;;;;;;9.07;3.90;;;;;;;16.79;50.43;97497.00;10395266;28;20030;-21
2022/03/25 07:39:12;;;;;;;3.50;3.20;;;;;;;16.78;50.03;97502.91;10393565;28;20105;-22
2022/03/25 07:44:13;;;;;;;3.17;2.73;;;;;;;16.76;50.05;97512.13;10389242;28;20026;-21
2022/03/25 07:49:13;;;;;;;3.53;2.80;;;;;;;16.74;50.03;97514.63;10384512;28;20033;-22
2022/03/25 07:54:13;;;;;;;4.93;3.00;;;;;;;16.74;50.34;97513.78;10396731;28;20037;-22
2022/03/25 07:59:15;;;;;;;6.60;3.20;;;;;;;16.71;50.13;97512.88;10388821;28;20052;-21
2022/03/25 08:04:16;;;;;;;17.27;4.13;;;;;;;16.78;50.17;97513.88;10393931;28;20504;-21
2022/03/25 08:09:16;;;;;;;10.13;3.33;;;;;;;16.77;50.06;97521.44;10384407;28;20411;-22
2022/03/25 08:14:17;;;;;;;4.15;3.05;;;;;;;16.78;49.95;97520.59;10393381;28;20498;-21
2022/03/25 08:19:17;;;;;;;9.88;2.80;;;;;;;16.78;49.73;97521.47;10384487;28;20038;-21
2022/03/25 08:29:37;;;;;;;13.10;7.85;;;;;;;16.84;47.12;97520.72;10379735;28;20108;-21
2022/03/25 08:34:37;;;;;;;15.73;9.45;;;;;;;16.91;45.54;97523.38;10389180;28;20025;-22
2022/03/25 08:39:38;;;;;;;12.40;8.43;;;;;;;16.93;46.04;97521.75;10391776;28;20055;-21
2022/03/25 08:44:38;;;;;;;7.37;5.17;;;;;;;16.82;47.98;97520.69;10387184;28;20417;-21
2022/03/25 08:49:39;;;;;;;5.03;3.50;;;;;;;16.78;48.73;97525.66;10390607;28;20307;-21
2022/03/25 08:54:39;;;;;;;7.05;4.10;;;;;;;16.75;48.95;97528.97;10392536;28;20813;-21
2022/03/25 08:59:40;;;;;;;5.33;3.67;;;;;;;16.73;49.54;97522.22;10388009;28;20025;-21
2022/03/25 09:04:40;;;;;;;3.80;3.37;;;;;;;16.73;49.31;97523.03;10396484;28;20033;-21
2022/03/25 09:09:40;;;;;;;6.17;3.60;;;;;;;16.73;49.61;97521.34;10380301;28;20340;-21
2022/03/25 09:14:41;;;;;;;7.07;4.82;;;;;;;16.73;49.46;97517.16;10395657;28;20049;-21
2022/03/25 09:19:42;;;;;;;6.57;5.10;;;;;;;16.73;49.73;97512.09;10387123;28;20497;-21
2022/03/25 09:24:42;;;;;;;5.43;3.83;;;;;;;16.73;49.64;97521.34;10397797;28;20030;-21
2022/03/25 09:29:45;;;;;;;5.30;4.72;;;;;;;16.72;49.81;97510.41;10393775;28;20040;-21
2022/03/25 09:40:06;;;;;;;12.68;8.32;;;;;;;16.84;49.04;97503.84;10392609;28;20026;-20
2022/03/25 09:45:08;;;;;;;10.65;8.30;;;;;;;16.93;48.39;97513.31;10376535;28;20034;-21
2022/03/25 09:50:12;;;;;;;10.82;7.35;;;;;;;16.92;48.93;97507.38;10386249;28;20041;-21
2022/03/25 09:55:13;;;;;;;6.35;3.65;;;;;;;16.82;49.66;97507.22;10390547;28;20036;-21
2022/03/25 10:00:18;;;;;;;4.15;3.10;;;;;;;16.79;49.91;97502.06;10390409;28;20036;-21
2022/03/25 10:05:20;;;;;;;4.90;3.20;;;;;;;16.79;49.76;97502.94;10392327;28;20030;-21
2022/03/25 10:10:23;;;;;;;3.60;3.30;;;;;;;16.79;49.60;97494.47;10383693;28;20088;-21
2022/03/25 10:15:26;;;;;;;3.60;3.15;;;;;;;16.80;50.11;97496.19;10390393;28;20029;-21
2022/03/25 10:20:28;;;;;;;4.32;3.22;;;;;;;16.80;50.15;97498.72;10382053;28;20041;-21
2022/03/25 10:25:48;;;;;;;3.58;3.25;;;;;;;16.82;49.98;97492.03;10391859;28;20034;-21
2022/03/25 10:31:13;;;;;;;4.75;3.25;;;;;;;16.88;49.74;97489.59;10379831;28;20669;-21
2022/03/25 10:36:16;;;;;;;4.03;2.85;;;;;;;16.88;50.16;97487.06;10390977;28;20024;-22
2022/03/25 10:41:19;;;;;;;5.35;2.97;;;;;;;16.88;50.17;97482.00;10386061;28;20060;-21
2022/03/25 10:46:29;;;;;;;16.98;6.32;;;;;;;16.92;50.06;97483.78;10386345;28;20025;-21
2022/03/25 10:51:30;;;;;;;16.10;8.52;;;;;;;17.04;52.30;97484.00;10362050;28;20099;-21
2022/03/25 10:56:45;;;;;;;14.67;5.97;;;;;;;17.06;51.16;97482.38;10395607;28;20084;-21
2022/03/25 11:01:47;;;;;;;6.03;3.38;;;;;;;16.99;50.13;97481.38;10387594;28;20529;-20
2022/03/25 11:06:48;;;;;;;3.25;2.47;;;;;;;16.94;50.12;97472.00;10392766;28;20095;-20
2022/03/25 11:11:50;;;;;;;4.40;3.38;;;;;;;16.93;49.99;97470.31;10390906;28;20041;-21
2022/03/25 11:16:57;;;;;;;4.78;3.28;;;;;;;16.92;49.92;97469.44;10385965;28;20030;-21
2022/03/25 11:21:57;;;;;;;5.60;2.72;;;;;;;16.90;50.39;97461.00;10387910;28;20072;-21
2022/03/25 11:27:05;;;;;;;4.90;2.40;;;;;;;16.85;50.08;97447.44;10397332;28;20064;-21
2022/03/25 11:32:14;;;;;;;4.25;2.60;;;;;;;16.90;50.13;97444.97;10392294;28;20481;-21
2022/03/25 11:37:26;;;;;;;4.93;3.15;;;;;;;16.91;50.21;97447.50;10387567;28;20057;-21
2022/03/25 11:42:40;;;;;;;4.28;3.20;;;;;;;16.89;50.26;97439.06;10391452;28;20100;-21
2022/03/25 11:47:40;;;;;;;4.30;3.05;;;;;;;16.92;50.17;97438.25;10388124;28;20481;-21
2022/03/25 11:52:41;;;;;;;3.80;2.80;;;;;;;16.90;50.54;97429.81;10394647;28;20033;-20
2022/03/25 11:57:44;;;;;;;14.07;5.93;;;;;;;17.06;53.61;97419.13;10374820;28;20051;-20
2022/03/25 12:02:59;;;;;;;11.48;5.00;;;;;;;17.15;53.67;97420.09;10397726;28;20026;-21
2022/03/25 12:08:21;;;;;;;7.57;3.80;;;;;;;17.06;51.09;97419.13;10391186;28;20060;-21
2022/03/25 12:13:42;;;;;;;5.40;3.90;;;;;;;17.00;50.52;97414.78;10397285;28;20029;-20
2022/03/25 12:18:46;;;;;;;4.30;3.03;;;;;;;16.94;50.74;97396.13;10386601;28;20461;-21
2022/03/25 12:23:58;;;;;;;3.50;2.80;;;;;;;16.96;50.93;97412.19;10400215;28;20069;-21
2022/03/25 12:28:59;;;;;;;5.45;3.00;;;;;;;16.94;50.56;97388.53;10396911;28;20608;-21
2022/03/25 12:34:01;;;;;;;6.32;2.67;;;;;;;16.95;50.58;97390.25;10389906;28;20099;-21
2022/03/25 12:39:02;;;;;;;5.00;3.30;;;;;;;16.95;50.91;97382.66;10391533;28;20026;-21
2022/03/25 12:44:03;;;;;;;3.72;2.88;;;;;;;16.92;50.72;97380.09;10382706;28;20029;-21
2022/03/25 12:49:08;;;;;;;4.63;2.88;;;;;;;16.93;50.71;97380.13;10387849;28;20053;-21
2022/03/25 12:54:16;;;;;;;3.28;2.75;;;;;;;16.92;50.66;97373.34;10393025;28;20036;-21
2022/03/25 12:59:26;;;;;;;4.57;2.58;;;;;;;16.92;50.48;97367.44;10383430;28;20021;-21
2022/03/25 13:04:28;;;;;;;20.80;5.78;;;;;;;17.05;53.99;97364.25;10400163;28;20511;-20
2022/03/25 13:09:28;;;;;;;8.80;4.47;;;;;;;17.17;54.11;97364.47;10382225;28;20030;-21
2022/03/25 13:14:29;;;;;;;11.87;4.43;;;;;;;17.16;53.13;97353.47;10393607;28;20041;-20
2022/03/25 13:19:31;;;;;;;5.07;2.70;;;;;;;17.03;51.08;97350.75;10389265;28;20052;-21
2022/03/25 13:24:51;;;;;;;5.90;2.95;;;;;;;16.96;51.14;97342.22;10379160;28;20496;-21
2022/03/25 13:29:52;;;;;;;4.97;3.08;;;;;;;16.93;50.86;97347.25;10390012;28;20056;-21
2022/03/25 13:35:13;;;;;;;4.78;2.58;;;;;;;16.92;50.81;97321.91;10384549;28;20041;-21
2022/03/25 13:40:33;;;;;;;4.22;2.92;;;;;;;16.91;51.05;97330.34;10389117;28;20388;-21
2022/03/25 13:45:35;;;;;;;4.22;2.85;;;;;;;16.90;51.12;97326.94;10384370;28;20033;-21
2022/03/25 13:50:46;;;;;;;4.55;3.30;;;;;;;16.86;51.09;97321.81;10387510;28;20038;-20
2022/03/25 13:55:46;;;;;;;3.70;2.80;;;;;;;16.89;50.76;97325.25;10389891;28;20030;-21
2022/03/25 14:00:52;;;;;;;6.47;2.53;;;;;;;16.88;50.77;97315.09;10386564;28;20026;-21
2022/03/25 14:05:52;;;;;;;3.95;2.75;;;;;;;16.80;51.18;97302.34;10389767;28;20718;-22
2022/03/25 14:10:58;;;;;;;5.90;4.20;;;;;;;16.91;52.83;97310.94;10384825;28;20040;-22
2022/03/25 14:16:15;;;;;;;7.10;3.85;;;;;;;17.11;54.89;97301.13;10390732;28;20121;-20
2022/03/25 14:21:23;;;;;;;4.20;3.33;;;;;;;17.17;53.32;97303.75;10384895;28;20096;-21
2022/03/25 14:26:23;;;;;;;3.70;2.25;;;;;;;17.03;51.08;97290.91;10389795;28;20482;-21
2022/03/25 14:31:24;;;;;;;5.47;2.40;;;;;;;16.94;51.12;97289.91;10384295;28;20029;-20
2022/03/25 14:36:24;;;;;;;3.17;2.30;;;;;;;16.92;51.24;97286.50;10391361;28;20033;-21
2022/03/25 14:41:27;;;;;;;3.43;2.80;;;;;;;16.84;50.97;97272.91;10390919;28;20038;-23
2022/03/25 14:46:29;;;;;;;3.58;2.50;;;;;;;16.82;50.98;97269.50;10390835;28;20046;-22
2022/03/25 14:51:29;;;;;;;2.97;2.35;;;;;;;16.89;51.07;97273.84;10400136;28;20456;-22
2022/03/25 14:56:30;;;;;;;5.13;3.10;;;;;;;16.87;51.24;97275.47;10395477;28;20084;-21
2022/03/25 15:01:31;;;;;;;6.77;3.57;;;;;;;16.87;51.39;97271.25;10401118;28;20073;-21
2022/03/25 15:06:31;;;;;;;8.40;2.83;;;;;;;16.77;52.02;97263.50;10389635;28;20300;-22
2022/03/25 15:11:31;;;;;;;7.82;2.60;;;;;;;16.84;51.20;97271.19;10388617;28;20100;-21
2022/03/25 15:16:32;;;;;;;6.17;2.70;;;;;;;16.84;51.22;97268.66;10397571;28;20372;-21
2022/03/25 15:21:32;;;;;;;8.68;3.97;;;;;;;17.02;54.59;97256.31;10391724;28;20037;-21
2022/03/25 15:26:34;;;;;;;5.80;3.60;;;;;;;17.17;54.01;97253.16;10397267;28;20036;-21
2022/03/25 15:36:54;;;;;;;4.07;3.22;;;;;;;17.04;51.36;97256.31;10388777;28;20462;-21
2022/03/25 15:41:54;;;;;;;5.45;2.85;;;;;;;16.94;51.22;97254.50;10390410;28;20109;-22
2022/03/25 15:46:55;;;;;;;3.93;2.13;;;;;;;16.90;51.35;97247.72;10379903;28;20417;-22
2022/03/25 15:51:56;;;;;;;2.83;2.30;;;;;;;16.88;50.87;97255.25;10387774;28;20420;-22
2022/03/25 15:56:57;;;;;;;2.53;2.30;;;;;;;16.88;51.03;97249.34;10389950;28;20033;-21
2022/03/25 16:01:57;;;;;;;2.83;2.30;;;;;;;16.87;51.40;97240.91;10397559;28;20120;-21
2022/03/25 16:06:58;;;;;;;3.88;2.58;;;;;;;16.86;51.57;97238.34;10387778;28;20114;-22
2022/03/25 16:12:00;;;;;;;2.40;2.17;;;;;;;16.86;51.26;97246.81;10388868;28;20037;-22
2022/03/25 16:17:02;;;;;;;6.10;3.00;;;;;;;16.86;51.66;97249.34;10391559;28;20040;-21
2022/03/25 16:22:03;;;;;;;2.65;2.33;;;;;;;16.87;50.84;97253.56;10388462;28;20037;-21
2022/03/25 16:27:04;;;;;;;4.50;3.33;;;;;;;16.91;52.82;97251.94;10397250;28;20034;-21
2022/03/25 16:32:07;;;;;;;7.07;3.90;;;;;;;17.01;52.64;97261.34;10385610;28;20033;-21
2022/03/25 16:37:09;;;;;;;11.48;5.15;;;;;;;16.93;54.06;97243.53;10393947;28;20034;-21
2022/03/25 16:42:10;;;;;;;6.68;4.07;;;;;;;16.95;52.94;97261.25;10381777;28;20033;-21
2022/03/25 16:47:10;;;;;;;11.77;4.75;;;;;;;16.91;53.30;97260.34;10392586;28;20029;-21
2022/03/25 16:52:11;;;;;;;12.35;4.82;;;;;;;16.91;52.06;97270.47;10388808;28;20037;-22
2022/03/25 16:57:12;;;;;;;13.38;5.80;;;;;;;16.89;51.97;97274.66;10390802;28;20029;-21
2022/03/25 17:02:14;;;;;;;10.15;5.03;;;;;;;16.87;51.29;97278.00;10391171;28;20052;-21
2022/03/25 17:07:14;;;;;;;7.20;4.03;;;;;;;16.86;51.60;97282.22;10385670;28;20029;-21
2022/03/25 17:12:17;;;;;;;5.63;4.07;;;;;;;16.85;51.38;97283.03;10394786;28;20482;-21
2022/03/25 17:17:17;;;;;;;14.25;4.68;;;;;;;16.87;52.04;97294.03;10391419;28;20462;-21
2022/03/25 17:22:18;;;;;;;19.10;4.28;;;;;;;16.83;52.35;97291.44;10385410;28;20029;-21
2022/03/25 17:27:19;;;;;;;16.55;5.35;;;;;;;16.98;54.00;97295.03;10393282;28;20034;-21
2022/03/25 17:32:20;;;;;;;8.27;5.82;;;;;;;17.05;54.07;97298.50;10388917;28;20082;-22
2022/03/25 17:37:20;;;;;;;9.47;4.87;;;;;;;17.03;53.58;97310.28;10390152;28;20097;-21
2022/03/25 17:42:20;;;;;;;7.30;4.23;;;;;;;16.94;51.92;97310.13;10386933;28;20041;-21
2022/03/25 17:47:22;;;;;;;9.83;5.27;;;;;;;16.92;51.84;97312.63;10390319;28;20034;-21
2022/03/25 17:52:22;;;;;;;8.95;3.58;;;;;;;16.89;51.64;97321.88;10376551;28;20289;-22
2022/03/25 17:57:23;;;;;;;7.27;3.47;;;;;;;16.88;51.39;97330.25;10385891;28;20038;-21
2022/03/25 18:02:24;;;;;;;7.57;3.70;;;;;;;16.86;51.58;97327.75;10373415;28;20148;-22
2022/03/25 18:07:24;;;;;;;7.65;4.15;;;;;;;16.86;51.40;97331.94;10383496;28;20362;-20
2022/03/25 18:12:24;;;;;;;9.50;3.20;;;;;;;16.87;51.72;97339.56;10392766;28;20667;-22
2022/03/25 18:17:25;;;;;;;8.13;3.67;;;;;;;16.88;51.97;97346.31;10382651;28;20034;-21
2022/03/25 18:22:27;;;;;;;12.47;4.43;;;;;;;16.88;51.92;97345.44;10396237;28;20445;-21
2022/03/25 18:27:28;;;;;;;9.18;4.43;;;;;;;16.95;53.92;97354.84;10385712;28;20127;-21
2022/03/25 18:32:28;;;;;;;18.80;6.03;;;;;;;17.03;54.47;97351.63;10371198;28;20072;-21
2022/03/25 18:37:29;;;;;;;12.93;6.17;;;;;;;17.07;54.46;97372.75;10395094;28;20478;-22
2022/03/25 18:42:30;;;;;;;12.80;4.47;;;;;;;17.00;52.07;97370.94;10377641;28;20029;-23
2022/03/25 18:47:31;;;;;;;9.52;3.20;;;;;;;16.91;51.49;97374.16;10365764;28;20055;-22
2022/03/25 18:52:31;;;;;;;10.35;3.80;;;;;;;16.89;51.82;97372.47;10381776;28;20037;-22
2022/03/25 18:57:31;;;;;;;5.75;3.97;;;;;;;16.88;51.71;97378.31;10377073;28;20022;-21
2022/03/25 19:02:32;;;;;;;7.37;2.80;;;;;;;16.85;51.48;97384.19;10377933;28;20038;-21
2022/03/25 19:07:32;;;;;;;2.42;2.08;;;;;;;16.86;51.53;97378.31;10379259;28;20030;-21
2022/03/25 19:12:33;;;;;;;6.50;3.15;;;;;;;16.80;51.41;97379.88;10357811;28;20030;-21
2022/03/25 19:17:34;;;;;;;7.45;2.72;;;;;;;16.86;51.66;97387.56;10374008;28;20041;-21
2022/03/25 19:22:35;;;;;;;4.10;2.47;;;;;;;16.86;51.45;97393.50;10373202;28;20461;-21
2022/03/25 19:27:35;;;;;;;5.65;3.83;;;;;;;16.86;51.58;97397.69;10379073;28;20323;-21
2022/03/25 19:32:36;;;;;;;8.30;4.25;;;;;;;17.00;55.39;97396.25;10380387;28;20192;-21
2022/03/25 19:37:37;;;;;;;9.85;4.75;;;;;;;17.06;55.62;97403.94;10381232;28;20034;-22
2022/03/25 19:42:41;;;;;;;14.93;3.85;;;;;;;17.04;53.89;97396.31;10379744;28;20498;-21
2022/03/25 19:47:42;;;;;;;4.20;2.92;;;;;;;16.94;51.84;97412.16;10384539;28;20038;-22
2022/03/25 19:52:43;;;;;;;5.78;2.53;;;;;;;16.86;51.52;97402.75;10386763;28;20057;-21
2022/03/25 19:57:44;;;;;;;5.95;3.05;;;;;;;16.89;51.71;97412.94;10387687;28;20308;-22
2022/03/25 20:02:44;;;;;;;8.88;3.45;;;;;;;16.88;51.68;97411.19;10383808;28;20041;-22
2022/03/25 20:07:45;;;;;;;3.67;2.70;;;;;;;16.89;51.66;97420.50;10387174;28;20112;-21
2022/03/25 20:12:45;;;;;;;4.73;2.70;;;;;;;16.88;51.57;97416.25;10392440;28;20034;-22
2022/03/25 20:17:46;;;;;;;3.10;2.80;;;;;;;16.79;51.62;97395.88;10392254;28;20033;-21
2022/03/25 20:22:46;;;;;;;3.35;2.40;;;;;;;16.79;51.90;97405.97;10395712;28;20037;-21
2022/03/25 20:27:48;;;;;;;3.67;2.42;;;;;;;16.84;51.69;97415.34;10388198;28;20040;-21
2022/03/25 20:32:52;;;;;;;4.90;2.65;;;;;;;16.86;51.41;97426.38;10384220;28;20038;-21
2022/03/25 20:37:53;;;;;;;6.10;3.17;;;;;;;17.02;55.72;97430.00;10381421;28;20022;-21
2022/03/25 20:42:54;;;;;;;10.60;4.00;;;;;;;17.04;55.53;97430.88;10380740;28;20037;-22
2022/03/25 20:47:54;;;;;;;5.88;2.58;;;;;;;17.00;52.72;97437.53;10379693;28;20306;-21
2022/03/25 20:52:55;;;;;;;4.53;2.58;;;;;;;16.94;51.75;97439.13;10381477;28;20037;-22
2022/03/25 20:57:55;;;;;;;6.17;2.40;;;;;;;16.94;51.36;97436.59;10382093;28;20412;-21
2022/03/25 21:02:56;;;;;;;3.07;2.40;;;;;;;16.91;51.42;97444.97;10382744;28;20295;-21
2022/03/25 21:07:56;;;;;;;3.63;1.93;;;;;;;16.90;51.38;97437.38;10386019;28;20109;-21
2022/03/25 21:12:56;;;;;;;2.92;2.17;;;;;;;16.89;51.40;97443.28;10384080;28;20034;-22
2022/03/25 21:17:57;;;;;;;4.20;2.28;;;;;;;16.90;51.24;97450.03;10383427;28;20030;-22
2022/03/25 21:23:01;;;;;;;2.77;2.30;;;;;;;16.91;51.50;97451.72;10381731;28;20516;-22
2022/03/25 21:28:03;;;;;;;3.35;2.75;;;;;;;16.89;51.47;97463.50;10383866;28;20034;-22
2022/03/25 21:33:04;;;;;;;3.20;1.90;;;;;;;16.82;51.14;97444.81;10382967;28;20108;-21
2022/03/25 21:38:05;;;;;;;3.67;2.47;;;;;;;16.88;51.41;97456.72;10381350;28;20100;-22
2022/03/25 21:43:07;;;;;;;5.10;3.90;;;;;;;16.97;54.74;97447.63;10378488;28;20064;-21
2022/03/25 21:48:08;;;;;;;5.80;3.40;;;;;;;17.05;54.72;97461.25;10397769;28;20040;-21
2022/03/25 21:53:09;;;;;;;4.65;3.00;;;;;;;17.00;52.46;97451.88;10383379;28;20030;-22
2022/03/25 21:58:13;;;;;;;3.63;2.42;;;;;;;16.94;51.78;97456.84;10378168;28;20028;-21
2022/03/25 22:03:15;;;;;;;4.28;2.55;;;;;;;16.92;51.55;97453.44;10381114;28;20029;-22
2022/03/25 22:08:15;;;;;;;3.42;2.50;;;;;;;16.91;51.50;97459.31;10382324;28;20112;-22
2022/03/25 22:13:15;;;;;;;2.87;2.50;;;;;;;16.89;51.47;97459.28;10378349;28;20037;-22
2022/03/25 22:18:16;;;;;;;3.67;2.20;;;;;;;16.90;51.65;97457.63;10379958;28;20265;-22
2022/03/25 22:23:17;;;;;;;4.00;2.70;;;;;;;16.89;51.38;97458.44;10394648;28;20298;-22
2022/03/25 22:28:17;;;;;;;2.63;2.30;;;;;;;16.88;51.23;97462.66;10379813;28;20041;-22
2022/03/25 22:33:19;;;;;;;4.35;2.22;;;;;;;16.86;51.67;97460.91;10380573;28;20814;-22
2022/03/25 22:38:19;;;;;;;3.92;2.70;;;;;;;16.88;51.71;97467.69;10377204;28;20022;-21
2022/03/25 22:43:20;;;;;;;2.20;2.00;;;;;;;16.87;51.50;97466.00;10379797;28;20037;-21
2022/03/25 22:48:20;;;;;;;3.87;3.00;;;;;;;16.99;53.88;97465.38;10389351;28;20029;-21
2022/03/25 22:53:21;;;;;;;5.50;3.37;;;;;;;17.04;54.72;97466.28;10391743;28;20296;-22
2022/03/25 22:58:21;;;;;;;6.35;2.60;;;;;;;17.00;53.45;97467.06;10380310;28;20560;-22
2022/03/25 23:03:22;;;;;;;3.67;2.27;;;;;;;16.91;51.77;97456.78;10390891;28;20176;-22
2022/03/25 23:08:23;;;;;;;5.70;2.40;;;;;;;16.87;51.34;97460.06;10395725;28;20382;-21
2022/03/25 23:13:24;;;;;;;3.35;2.88;;;;;;;16.88;51.50;97461.78;10384925;28;20112;-21
2022/03/25 23:18:25;;;;;;;3.00;2.40;;;;;;;16.86;51.66;97460.91;10384328;28;20018;-22
2022/03/25 23:23:25;;;;;;;3.10;2.40;;;;;;;16.86;51.38;97461.78;10384799;28;20030;-22
2022/03/25 23:28:26;;;;;;;6.72;3.50;;;;;;;16.87;52.75;97470.19;10385598;28;20034;-21
2022/03/25 23:33:26;;;;;;;5.53;2.55;;;;;;;16.85;51.38;97461.72;10382443;28;20037;-21
2022/03/25 23:38:27;;;;;;;2.50;2.08;;;;;;;16.83;51.43;97458.34;10383744;28;20041;-22